createdAt,value
2019-05-20T00:00:57.564Z,15.70
2019-05-20T00:03:26.569Z,15.70
2019-05-20T00:05:55.739Z,15.70
2019-05-20T00:08:24.807Z,15.60
2019-05-20T00:10:53.799Z,15.60
2019-05-20T00:13:22.866Z,15.60
2019-05-20T00:15:52.054Z,15.50
2019-05-20T00:18:21.260Z,15.50
2019-05-20T00:20:50.543Z,15.40
2019-05-20T00:23:19.851Z,15.40
2019-05-20T00:25:48.947Z,15.40
2019-05-20T00:28:17.747Z,15.40
2019-05-20T00:30:47.062Z,15.30
2019-05-20T00:33:16.100Z,15.20
2019-05-20T00:35:45.283Z,15.20
2019-05-20T00:38:14.725Z,15.20
2019-05-20T00:40:43.865Z,15.10
2019-05-20T00:43:13.100Z,15.00
2019-05-20T00:45:42.649Z,15.00
2019-05-20T00:48:11.926Z,15.00
2019-05-20T00:50:41.214Z,15.00
2019-05-20T00:53:10.636Z,15.00
2019-05-20T00:55:39.773Z,14.80
2019-05-20T00:58:09.147Z,14.70
2019-05-20T01:00:38.383Z,14.40
2019-05-20T01:03:07.676Z,14.20
2019-05-20T01:05:36.871Z,14.00
2019-05-20T01:08:06.098Z,14.00
2019-05-20T01:10:35.237Z,14.00
2019-05-20T01:13:04.410Z,14.10
2019-05-20T01:15:33.493Z,14.20
2019-05-20T01:18:02.659Z,14.30
2019-05-20T01:20:31.722Z,14.30
2019-05-20T01:23:00.693Z,14.30
2019-05-20T01:25:29.824Z,14.30
2019-05-20T01:27:59.308Z,14.40
2019-05-20T01:30:28.522Z,14.40
2019-05-20T01:33:10.958Z,14.30
2019-05-20T01:35:28.484Z,14.30
2019-05-20T01:37:57.430Z,14.30
2019-05-20T01:40:26.513Z,14.30
2019-05-20T01:42:55.758Z,14.40
2019-05-20T01:45:25.307Z,14.40
2019-05-20T01:47:54.398Z,14.40
2019-05-20T01:50:23.381Z,14.40
2019-05-20T01:52:52.679Z,14.50
2019-05-20T01:55:21.614Z,14.60
2019-05-20T01:57:50.711Z,14.80
2019-05-20T02:00:21.622Z,14.60
2019-05-20T02:02:50.871Z,14.60
2019-05-20T02:05:19.890Z,14.60
2019-05-20T02:07:49.016Z,14.50
2019-05-20T02:10:18.354Z,14.50
2019-05-20T02:12:47.487Z,14.50
2019-05-20T02:15:36.759Z,14.50
2019-05-20T02:18:05.748Z,14.60
2019-05-20T02:20:34.758Z,14.60
2019-05-20T02:23:14.500Z,14.60
2019-05-20T02:25:47.258Z,14.80
2019-05-20T02:28:16.302Z,14.90
2019-05-20T02:30:45.622Z,14.80
2019-05-20T02:33:14.781Z,14.90
2019-05-20T02:35:44.215Z,14.90
2019-05-20T02:38:13.680Z,14.90
2019-05-20T02:40:42.881Z,15.10
2019-05-20T02:43:11.917Z,16.40
2019-05-20T02:45:41.159Z,18.10
2019-05-20T02:48:10.544Z,19.30
2019-05-20T02:50:39.693Z,19.30
2019-05-20T02:53:08.863Z,19.60
2019-05-20T02:55:37.736Z,19.50
2019-05-20T02:58:06.665Z,19.20
2019-05-20T03:00:35.862Z,19.60
2019-05-20T03:03:04.851Z,19.70
2019-05-20T03:05:33.940Z,19.70
2019-05-20T03:08:02.992Z,19.80
2019-05-20T03:10:32.094Z,19.80
2019-05-20T03:13:01.102Z,20.20
2019-05-20T03:15:30.110Z,20.40
2019-05-20T03:17:59.379Z,20.80
2019-05-20T03:20:28.349Z,20.60
2019-05-20T03:22:57.293Z,20.80
2019-05-20T03:25:26.817Z,21.60
2019-05-20T03:27:56.261Z,21.80
2019-05-20T03:30:25.421Z,21.80
2019-05-20T03:32:54.405Z,22.40
2019-05-20T03:35:23.572Z,22.20
2019-05-20T03:37:52.521Z,22.30
2019-05-20T03:40:21.464Z,22.10
2019-05-20T03:42:50.466Z,22.00
2019-05-20T03:45:19.863Z,21.40
2019-05-20T03:47:48.750Z,21.50
2019-05-20T03:50:18.059Z,21.70
2019-05-20T03:52:46.939Z,22.50
2019-05-20T03:55:16.237Z,23.30
2019-05-20T03:58:05.921Z,23.50
2019-05-20T04:00:38.012Z,23.00
2019-05-20T04:03:07.217Z,23.00
2019-05-20T04:05:36.653Z,23.70
2019-05-20T04:08:06.000Z,24.50
2019-05-20T04:10:35.199Z,23.90
2019-05-20T04:13:04.461Z,23.30
2019-05-20T04:15:33.852Z,23.90
2019-05-20T04:18:02.970Z,23.60
2019-05-20T04:20:32.057Z,24.10
2019-05-20T04:23:01.218Z,24.80
2019-05-20T04:25:30.339Z,25.10
2019-05-20T04:27:59.356Z,23.60
2019-05-20T04:30:28.465Z,24.30
2019-05-20T04:32:57.582Z,23.70
2019-05-20T04:35:26.823Z,24.40
2019-05-20T04:37:56.232Z,26.70
2019-05-20T04:40:25.408Z,26.90
2019-05-20T04:42:54.241Z,25.20
2019-05-20T04:45:23.762Z,26.10
2019-05-20T04:47:53.120Z,27.30
2019-05-20T04:50:22.487Z,27.70
2019-05-20T04:52:51.553Z,26.40
2019-05-20T04:55:20.751Z,27.10
2019-05-20T04:57:50.207Z,27.10
2019-05-20T05:00:39.220Z,26.90
2019-05-20T05:03:08.473Z,26.40
2019-05-20T05:05:38.156Z,26.60
2019-05-20T05:08:07.467Z,27.40
2019-05-20T05:10:36.545Z,28.60
2019-05-20T05:13:05.492Z,27.20
2019-05-20T05:15:34.423Z,27.00
2019-05-20T05:18:03.471Z,27.50
2019-05-20T05:20:32.653Z,27.40
2019-05-20T05:23:01.651Z,27.40
2019-05-20T05:25:30.584Z,28.50
2019-05-20T05:27:59.982Z,29.90
2019-05-20T05:30:29.296Z,30.70
2019-05-20T05:32:58.437Z,30.60
2019-05-20T05:35:27.348Z,29.00
2019-05-20T05:37:56.608Z,30.50
2019-05-20T05:40:30.269Z,30.50
2019-05-20T05:42:59.383Z,29.90
2019-05-20T05:45:32.424Z,31.20
2019-05-20T05:48:01.545Z,29.70
2019-05-20T05:50:30.853Z,28.50
2019-05-20T05:52:59.872Z,27.80
2019-05-20T05:55:29.170Z,28.00
2019-05-20T05:57:58.241Z,29.30
2019-05-20T06:00:27.375Z,28.50
2019-05-20T06:02:56.643Z,27.60
2019-05-20T06:05:26.083Z,28.00
2019-05-20T06:07:55.105Z,29.50
2019-05-20T06:10:24.305Z,29.30
2019-05-20T06:12:53.611Z,29.50
2019-05-20T06:15:22.826Z,29.60
2019-05-20T06:17:52.242Z,27.80
2019-05-20T06:20:21.569Z,27.40
2019-05-20T06:22:50.738Z,27.80
2019-05-20T06:25:20.273Z,27.90
2019-05-20T06:27:49.336Z,28.50
2019-05-20T06:30:18.517Z,29.50
2019-05-20T06:32:48.120Z,28.20
2019-05-20T06:35:17.665Z,26.90
2019-05-20T06:37:48.564Z,27.10
2019-05-20T06:40:17.634Z,26.70
2019-05-20T06:42:47.032Z,25.80
2019-05-20T06:45:16.080Z,25.80
2019-05-20T06:47:45.906Z,26.00
2019-05-20T06:50:14.884Z,26.30
2019-05-20T06:52:44.011Z,25.30
2019-05-20T06:55:13.312Z,26.50
2019-05-20T06:57:42.535Z,27.10
2019-05-20T07:00:12.999Z,27.10
2019-05-20T07:02:42.225Z,26.50
2019-05-20T07:05:11.608Z,25.90
2019-05-20T07:07:40.769Z,25.50
2019-05-20T07:10:09.868Z,25.40
2019-05-20T07:12:41.447Z,25.90
2019-05-20T07:15:09.467Z,25.70
2019-05-20T07:17:38.894Z,25.60
2019-05-20T07:20:08.482Z,24.90
2019-05-20T07:22:54.607Z,24.50
2019-05-20T07:25:08.456Z,23.90
2019-05-20T07:27:37.826Z,24.20
2019-05-20T07:30:06.830Z,25.50
2019-05-20T07:32:36.441Z,26.70
2019-05-20T07:35:08.821Z,26.80
2019-05-20T07:37:38.011Z,25.70
2019-05-20T07:40:13.712Z,25.60
2019-05-20T07:42:43.291Z,25.20
2019-05-20T07:45:13.048Z,24.90
2019-05-20T07:47:42.584Z,25.50
2019-05-20T07:50:12.193Z,25.20
2019-05-20T07:52:41.477Z,26.40
2019-05-20T07:55:11.007Z,25.30
2019-05-20T07:57:40.400Z,24.40
2019-05-20T08:00:10.015Z,23.80
2019-05-20T08:02:39.812Z,23.50
2019-05-20T08:05:09.741Z,23.20
2019-05-20T08:07:51.285Z,23.20
2019-05-20T08:10:09.599Z,23.10
2019-05-20T08:12:39.172Z,23.40
2019-05-20T08:15:09.038Z,23.20
2019-05-20T08:17:38.716Z,23.20
2019-05-20T08:20:07.872Z,22.90
2019-05-20T08:22:37.109Z,23.30
2019-05-20T08:25:07.508Z,23.40
2019-05-20T08:27:36.690Z,23.00
2019-05-20T08:30:13.675Z,23.30
2019-05-20T08:32:40.689Z,23.20
2019-05-20T08:35:09.956Z,23.60
2019-05-20T08:37:45.322Z,23.70
2019-05-20T08:40:10.063Z,23.70
2019-05-20T08:42:39.123Z,23.40
2019-05-20T08:45:08.357Z,23.40
2019-05-20T08:47:37.574Z,23.50
2019-05-20T08:50:11.219Z,23.30
2019-05-20T08:52:37.914Z,23.20
2019-05-20T08:55:08.313Z,23.50
2019-05-20T08:57:37.780Z,23.60
2019-05-20T09:00:07.093Z,23.70
2019-05-20T09:02:36.477Z,23.50
2019-05-20T09:05:06.891Z,23.70
2019-05-20T09:07:35.977Z,23.70
2019-05-20T09:10:05.501Z,23.80
2019-05-20T09:12:34.733Z,24.10
2019-05-20T09:15:04.622Z,24.10
2019-05-20T09:17:33.859Z,23.90
2019-05-20T09:20:03.163Z,23.70
2019-05-20T09:22:32.393Z,23.50
2019-05-20T09:25:02.191Z,23.60
2019-05-20T09:27:31.817Z,24.00
2019-05-20T09:30:01.641Z,24.00
2019-05-20T09:32:31.495Z,24.10
2019-05-20T09:35:01.035Z,24.00
2019-05-20T09:37:30.310Z,23.70
2019-05-20T09:39:59.325Z,23.70
2019-05-20T09:42:28.477Z,23.50
2019-05-20T09:44:57.482Z,23.70
2019-05-20T09:47:26.728Z,23.80
2019-05-20T09:49:56.025Z,23.90
2019-05-20T09:52:25.416Z,23.80
2019-05-20T09:54:54.752Z,23.60
2019-05-20T09:57:25.415Z,23.50
2019-05-20T09:59:54.224Z,23.60
2019-05-20T10:02:32.674Z,23.70
2019-05-20T10:04:54.769Z,23.60
2019-05-20T10:07:24.158Z,23.90
2019-05-20T10:09:53.393Z,24.00
2019-05-20T10:12:22.824Z,24.00
2019-05-20T10:14:52.866Z,23.80
2019-05-20T10:17:22.282Z,24.00
2019-05-20T10:19:51.615Z,23.80
2019-05-20T10:22:20.935Z,24.00
2019-05-20T10:24:50.539Z,24.10
2019-05-20T10:27:19.643Z,23.80
2019-05-20T10:29:49.063Z,24.10
2019-05-20T10:32:18.168Z,24.00
2019-05-20T10:34:47.335Z,24.20
2019-05-20T10:37:16.943Z,24.10
2019-05-20T10:39:46.007Z,23.80
2019-05-20T10:42:15.440Z,24.10
2019-05-20T10:44:44.608Z,24.20
2019-05-20T10:47:14.004Z,23.70
2019-05-20T10:49:43.022Z,23.70
2019-05-20T10:52:12.296Z,23.70
2019-05-20T10:54:41.684Z,23.80
2019-05-20T10:57:10.889Z,23.90
2019-05-20T10:59:40.195Z,23.60
2019-05-20T11:02:09.366Z,24.10
2019-05-20T11:04:38.762Z,24.10
2019-05-20T11:07:08.266Z,24.60
2019-05-20T11:09:37.572Z,24.60
2019-05-20T11:12:06.726Z,24.10
2019-05-20T11:14:36.028Z,24.10
2019-05-20T11:17:05.322Z,24.20
2019-05-20T11:19:34.565Z,24.30
2019-05-20T11:22:04.007Z,24.50
2019-05-20T11:24:33.237Z,23.90
2019-05-20T11:27:02.189Z,24.00
2019-05-20T11:29:31.616Z,24.10
2019-05-20T11:32:00.823Z,24.30
2019-05-20T11:34:29.962Z,24.30
2019-05-20T11:36:59.419Z,24.40
2019-05-20T11:39:33.363Z,24.10
2019-05-20T11:41:59.402Z,24.20
2019-05-20T11:44:28.374Z,24.30
2019-05-20T11:46:57.572Z,24.20
2019-05-20T11:49:29.026Z,24.10
2019-05-20T11:51:57.416Z,23.90
2019-05-20T11:54:26.678Z,23.90
2019-05-20T11:56:55.763Z,24.10
2019-05-20T11:59:25.075Z,24.30
2019-05-20T12:01:54.339Z,24.10
2019-05-20T12:04:23.384Z,24.10
2019-05-20T12:06:52.653Z,24.20
2019-05-20T12:09:21.787Z,24.10
2019-05-20T12:11:51.006Z,23.70
2019-05-20T12:14:20.831Z,24.00
2019-05-20T12:16:50.133Z,24.10
2019-05-20T12:19:19.412Z,24.10
2019-05-20T12:21:48.403Z,24.00
2019-05-20T12:24:17.667Z,23.90
2019-05-20T12:26:47.019Z,24.10
2019-05-20T12:29:16.354Z,24.10
2019-05-20T12:31:45.432Z,24.20
2019-05-20T12:34:14.652Z,24.20
2019-05-20T12:36:44.097Z,24.30
2019-05-20T12:39:13.434Z,24.20
2019-05-20T12:41:42.547Z,24.40
2019-05-20T12:44:13.240Z,24.20
2019-05-20T12:46:42.667Z,24.00
2019-05-20T12:49:11.803Z,23.90
2019-05-20T12:51:41.636Z,23.90
2019-05-20T12:54:11.070Z,23.80
2019-05-20T12:56:40.069Z,23.80
2019-05-20T12:59:09.731Z,23.90
2019-05-20T13:01:38.796Z,24.00
2019-05-20T13:04:08.146Z,24.20
2019-05-20T13:06:37.142Z,24.20
2019-05-20T13:09:07.117Z,24.20
2019-05-20T13:11:36.381Z,24.10
2019-05-20T13:14:05.754Z,24.30
2019-05-20T13:16:34.657Z,24.20
2019-05-20T13:19:03.583Z,24.10
2019-05-20T13:21:32.963Z,24.20
2019-05-20T13:24:02.022Z,24.20
2019-05-20T13:26:31.491Z,24.10
2019-05-20T13:29:00.974Z,23.90
2019-05-20T13:31:30.174Z,24.20
2019-05-20T13:33:59.577Z,24.10
2019-05-20T13:36:28.484Z,24.10
2019-05-20T13:38:57.541Z,24.10
2019-05-20T13:41:26.861Z,24.00
2019-05-20T13:43:55.892Z,24.10
2019-05-20T13:46:25.557Z,24.10
2019-05-20T13:48:54.721Z,24.20
2019-05-20T13:51:23.774Z,24.20
2019-05-20T13:53:52.811Z,24.10
2019-05-20T13:56:22.024Z,24.10
2019-05-20T13:58:51.441Z,24.20
2019-05-20T14:01:20.658Z,24.30
2019-05-20T14:03:49.632Z,24.10
2019-05-20T14:06:18.981Z,23.80
2019-05-20T14:08:48.016Z,23.90
2019-05-20T14:11:17.502Z,24.00
2019-05-20T14:13:46.680Z,24.00
2019-05-20T14:16:15.988Z,24.00
2019-05-20T14:18:45.302Z,23.90
2019-05-20T14:21:14.606Z,23.90
2019-05-20T14:23:43.979Z,23.90
2019-05-20T14:26:13.048Z,23.90
2019-05-20T14:28:42.212Z,24.00
2019-05-20T14:31:11.549Z,23.90
2019-05-20T14:33:40.786Z,24.00
2019-05-20T14:36:09.908Z,23.90
2019-05-20T14:38:39.027Z,23.90
2019-05-20T14:41:20.923Z,23.80
2019-05-20T14:43:38.667Z,23.80
2019-05-20T14:46:07.713Z,23.80
2019-05-20T14:48:37.395Z,23.80
2019-05-20T14:51:06.822Z,23.80
2019-05-20T14:53:36.237Z,23.90
2019-05-20T14:56:05.614Z,23.90
2019-05-20T14:58:34.792Z,23.80
2019-05-20T15:01:04.005Z,23.80
2019-05-20T15:03:33.296Z,23.70
2019-05-20T15:06:02.422Z,23.60
2019-05-20T15:08:34.410Z,23.60
2019-05-20T15:11:02.415Z,23.60
2019-05-20T15:13:31.682Z,23.60
2019-05-20T15:16:00.957Z,23.70
2019-05-20T15:18:30.315Z,23.60
2019-05-20T15:20:59.566Z,23.60
2019-05-20T15:23:28.573Z,23.50
2019-05-20T15:25:57.905Z,23.50
2019-05-20T15:28:26.982Z,23.40
2019-05-20T15:30:56.343Z,23.30
2019-05-20T15:33:25.544Z,23.20
2019-05-20T15:35:54.692Z,23.30
2019-05-20T15:38:23.811Z,23.30
2019-05-20T15:40:53.173Z,23.30
2019-05-20T15:43:22.339Z,23.30
2019-05-20T15:45:51.544Z,23.30
2019-05-20T15:48:20.451Z,23.20
2019-05-20T15:50:49.745Z,23.20
2019-05-20T15:53:18.977Z,23.20
2019-05-20T15:55:48.101Z,23.20
2019-05-20T15:58:17.505Z,23.10
2019-05-20T16:00:46.795Z,23.10
2019-05-20T16:03:16.054Z,23.10
2019-05-20T16:05:45.165Z,23.00
2019-05-20T16:08:14.662Z,23.00
2019-05-20T16:10:44.343Z,22.90
2019-05-20T16:13:13.446Z,22.90
2019-05-20T16:15:42.570Z,22.80
2019-05-20T16:18:11.932Z,22.80
2019-05-20T16:20:40.952Z,22.80
2019-05-20T16:23:10.165Z,22.70
2019-05-20T16:25:39.589Z,22.70
2019-05-20T16:28:08.680Z,22.70
2019-05-20T16:30:38.256Z,22.60
2019-05-20T16:33:07.453Z,22.60
2019-05-20T16:35:36.675Z,22.50
2019-05-20T16:38:06.117Z,22.40
2019-05-20T16:40:35.447Z,22.40
2019-05-20T16:43:04.696Z,22.40
2019-05-20T16:45:34.194Z,22.30
2019-05-20T16:48:03.328Z,22.20
2019-05-20T16:50:32.444Z,22.20
2019-05-20T16:53:01.553Z,22.10
2019-05-20T16:55:30.677Z,22.10
2019-05-20T16:57:59.956Z,22.00
2019-05-20T17:00:31.875Z,22.00
2019-05-20T17:02:59.554Z,21.90
2019-05-20T17:05:29.155Z,21.80
2019-05-20T17:07:58.776Z,21.90
2019-05-20T17:10:27.916Z,21.80
2019-05-20T17:12:57.372Z,21.80
2019-05-20T17:15:26.577Z,21.70
2019-05-20T17:17:55.793Z,21.70
2019-05-20T17:20:25.218Z,21.60
2019-05-20T17:22:54.716Z,21.60
2019-05-20T17:25:24.382Z,21.50
2019-05-20T17:27:53.834Z,21.50
2019-05-20T17:30:23.138Z,21.40
2019-05-20T17:32:52.387Z,21.30
2019-05-20T17:35:21.790Z,21.30
2019-05-20T17:37:54.721Z,21.20
2019-05-20T17:40:22.320Z,21.10
2019-05-20T17:42:51.594Z,21.10
2019-05-20T17:45:21.075Z,21.00
2019-05-20T17:47:50.474Z,21.00
2019-05-20T17:50:19.344Z,20.90
2019-05-20T17:52:48.577Z,20.90
2019-05-20T17:55:17.804Z,20.80
2019-05-20T17:57:46.967Z,20.80
2019-05-20T18:00:20.649Z,20.70
2019-05-20T18:02:49.543Z,20.70
2019-05-20T18:05:19.005Z,20.70
2019-05-20T18:07:47.917Z,20.70
2019-05-20T18:10:18.666Z,20.60
2019-05-20T18:12:47.715Z,20.50
2019-05-20T18:15:16.767Z,20.50
2019-05-20T18:17:46.181Z,20.50
2019-05-20T18:20:15.518Z,20.40
2019-05-20T18:22:44.893Z,20.40
2019-05-20T18:25:14.168Z,20.30
2019-05-20T18:27:43.489Z,20.30
2019-05-20T18:30:13.862Z,20.30
2019-05-20T18:32:43.243Z,20.20
2019-05-20T18:35:12.692Z,20.20
2019-05-20T18:37:42.008Z,20.10
2019-05-20T18:40:14.305Z,20.10
2019-05-20T18:42:42.056Z,20.10
2019-05-20T18:45:11.383Z,20.00
2019-05-20T18:47:40.962Z,20.00
2019-05-20T18:50:10.290Z,20.00
2019-05-20T18:52:39.557Z,20.00
2019-05-20T18:55:08.951Z,19.90
2019-05-20T18:57:38.145Z,19.80
2019-05-20T19:00:10.825Z,19.70
2019-05-20T19:02:40.316Z,19.70
2019-05-20T19:05:09.662Z,19.60
2019-05-20T19:07:38.857Z,19.60
2019-05-20T19:10:07.962Z,19.60
2019-05-20T19:12:37.484Z,19.50
2019-05-20T19:15:07.523Z,19.50
2019-05-20T19:17:36.942Z,19.40
2019-05-20T19:20:06.593Z,19.30
2019-05-20T19:22:35.839Z,19.30
2019-05-20T19:25:06.787Z,19.30
2019-05-20T19:27:35.550Z,19.20
2019-05-20T19:30:05.145Z,19.20
2019-05-20T19:32:34.187Z,19.20
2019-05-20T19:35:03.486Z,19.10
2019-05-20T19:37:32.433Z,19.00
2019-05-20T19:40:01.644Z,19.00
2019-05-20T19:42:31.397Z,19.00
2019-05-20T19:45:00.843Z,18.90
2019-05-20T19:47:29.950Z,18.90
2019-05-20T19:49:59.236Z,18.90
2019-05-20T19:52:28.527Z,18.80
2019-05-20T19:54:57.790Z,18.80
2019-05-20T19:57:27.732Z,18.80
2019-05-20T19:59:57.207Z,18.70
2019-05-20T20:02:26.107Z,18.60
2019-05-20T20:04:55.602Z,18.60
2019-05-20T20:07:24.695Z,18.50
2019-05-20T20:09:53.888Z,18.50
2019-05-20T20:12:23.140Z,18.40
2019-05-20T20:14:52.299Z,18.40
2019-05-20T20:17:21.564Z,18.20
2019-05-20T20:19:50.604Z,18.20
2019-05-20T20:22:19.529Z,18.20
2019-05-20T20:24:48.995Z,18.10
2019-05-20T20:27:18.108Z,18.10
2019-05-20T20:29:47.200Z,18.10
2019-05-20T20:32:16.323Z,18.00
2019-05-20T20:34:45.983Z,18.00
2019-05-20T20:37:15.212Z,17.90
2019-05-20T20:39:44.326Z,17.90
2019-05-20T20:42:13.641Z,17.90
2019-05-20T20:44:43.178Z,17.80
2019-05-20T20:47:12.421Z,17.80
2019-05-20T20:49:41.731Z,17.70
2019-05-20T20:52:10.738Z,17.70
2019-05-20T20:54:40.045Z,17.60
2019-05-20T20:57:09.301Z,17.60
2019-05-20T20:59:38.348Z,17.50
2019-05-20T21:02:07.761Z,17.50
2019-05-20T21:04:37.095Z,17.50
2019-05-20T21:07:06.201Z,17.40
2019-05-20T21:09:35.496Z,17.40
2019-05-20T21:12:04.582Z,17.30
2019-05-20T21:14:33.542Z,17.30
2019-05-20T21:17:03.048Z,17.30
2019-05-20T21:19:32.205Z,17.20
2019-05-20T21:22:01.373Z,17.20
2019-05-20T21:24:30.821Z,17.20
2019-05-20T21:26:59.958Z,17.20
2019-05-20T21:29:32.482Z,17.10
2019-05-20T21:32:00.393Z,17.00
2019-05-20T21:34:29.448Z,17.00
2019-05-20T21:36:58.873Z,17.00
2019-05-20T21:39:28.257Z,17.00
2019-05-20T21:41:57.286Z,16.90
2019-05-20T21:44:26.195Z,16.90
2019-05-20T21:46:55.201Z,16.90
2019-05-20T21:49:24.634Z,16.80
2019-05-20T21:51:53.978Z,16.80
2019-05-20T21:54:23.172Z,16.80
2019-05-20T21:56:52.499Z,16.70
2019-05-20T21:59:21.817Z,16.70
2019-05-20T22:01:51.022Z,16.70
2019-05-20T22:04:20.402Z,16.70
2019-05-20T22:06:49.741Z,16.60
2019-05-20T22:09:18.755Z,16.60
2019-05-20T22:11:47.701Z,16.60
2019-05-20T22:14:16.632Z,16.50
2019-05-20T22:16:45.632Z,16.40
2019-05-20T22:19:15.099Z,16.50
2019-05-20T22:21:48.683Z,16.40
2019-05-20T22:24:17.793Z,16.40
2019-05-20T22:26:47.100Z,16.30
2019-05-20T22:29:16.021Z,16.30
2019-05-20T22:31:45.298Z,16.30
2019-05-20T22:34:14.443Z,16.30
2019-05-20T22:36:43.500Z,16.20
2019-05-20T22:39:12.703Z,16.20
2019-05-20T22:41:42.197Z,16.20
2019-05-20T22:44:11.622Z,16.10
2019-05-20T22:46:40.631Z,16.10
2019-05-20T22:49:09.862Z,16.10
2019-05-20T22:51:39.141Z,16.10
2019-05-20T22:54:08.095Z,16.00
2019-05-20T22:56:37.170Z,15.90
2019-05-20T22:59:06.701Z,15.90
2019-05-20T23:01:35.889Z,15.80
2019-05-20T23:04:05.268Z,15.70
2019-05-20T23:06:34.444Z,15.70
2019-05-20T23:09:05.198Z,15.70
2019-05-20T23:11:34.143Z,15.60
2019-05-20T23:14:03.307Z,15.50
2019-05-20T23:16:32.722Z,15.50
2019-05-20T23:19:01.757Z,15.40
2019-05-20T23:21:31.125Z,15.30
2019-05-20T23:24:00.483Z,15.30
2019-05-20T23:26:29.294Z,15.20
2019-05-20T23:28:58.382Z,15.20
2019-05-20T23:31:28.067Z,15.20
2019-05-20T23:34:11.692Z,15.20
2019-05-20T23:36:28.101Z,15.30
2019-05-20T23:38:57.149Z,15.20
2019-05-20T23:41:26.201Z,15.20
2019-05-20T23:43:55.127Z,15.30
2019-05-20T23:46:24.216Z,15.40
2019-05-20T23:48:53.401Z,15.40
2019-05-20T23:51:22.445Z,15.30
2019-05-20T23:53:51.627Z,15.20
2019-05-20T23:56:20.805Z,15.20
2019-05-20T23:58:49.813Z,15.20
